createdAt,value
2019-03-22T00:01:47.092Z,5.30
2019-03-22T00:04:17.063Z,5.40
2019-03-22T00:06:46.963Z,5.30
2019-03-22T00:09:16.890Z,5.30
2019-03-22T00:11:46.878Z,5.30
2019-03-22T00:14:17.064Z,5.30
2019-03-22T00:16:47.003Z,5.30
2019-03-22T00:19:16.926Z,5.30
2019-03-22T00:21:46.892Z,5.30
2019-03-22T00:24:16.844Z,5.20
2019-03-22T00:26:46.766Z,5.20
2019-03-22T00:29:16.711Z,5.20
2019-03-22T00:31:46.621Z,5.10
2019-03-22T00:34:16.543Z,5.10
2019-03-22T00:36:46.384Z,5.10
2019-03-22T00:39:16.343Z,5.00
2019-03-22T00:41:46.259Z,5.00
2019-03-22T00:44:16.244Z,5.00
2019-03-22T00:46:46.138Z,5.00
2019-03-22T00:49:16.048Z,5.00
2019-03-22T00:51:46.023Z,5.00
2019-03-22T00:54:15.975Z,4.90
2019-03-22T00:56:46.013Z,4.90
2019-03-22T00:59:15.915Z,4.90
2019-03-22T01:01:45.842Z,4.80
2019-03-22T01:04:15.779Z,4.80
2019-03-22T01:06:45.683Z,4.70
2019-03-22T01:09:15.634Z,4.70
2019-03-22T01:11:45.536Z,4.70
2019-03-22T01:14:15.554Z,4.70
2019-03-22T01:16:45.485Z,4.70
2019-03-22T01:19:15.411Z,4.60
2019-03-22T01:21:45.780Z,4.60
2019-03-22T01:24:15.679Z,4.60
2019-03-22T01:26:45.641Z,4.60
2019-03-22T01:29:15.579Z,4.60
2019-03-22T01:31:45.510Z,4.60
2019-03-22T01:34:15.424Z,4.70
2019-03-22T01:36:45.335Z,4.70
2019-03-22T01:39:15.267Z,4.60
2019-03-22T01:41:45.175Z,4.50
2019-03-22T01:44:15.111Z,4.50
2019-03-22T01:46:45.015Z,4.50
2019-03-22T01:49:14.974Z,4.50
2019-03-22T01:51:44.892Z,4.50
2019-03-22T01:54:14.845Z,4.50
2019-03-22T01:56:44.829Z,4.40
2019-03-22T01:59:14.939Z,4.40
2019-03-22T02:01:44.826Z,4.40
2019-03-22T02:04:14.728Z,4.40
2019-03-22T02:06:44.676Z,4.40
2019-03-22T02:09:14.586Z,4.40
2019-03-22T02:11:44.547Z,4.40
2019-03-22T02:14:14.467Z,4.40
2019-03-22T02:16:44.380Z,4.40
2019-03-22T02:19:14.312Z,4.50
2019-03-22T02:21:45.453Z,4.50
2019-03-22T02:24:15.405Z,4.50
2019-03-22T02:26:45.314Z,4.50
2019-03-22T02:29:15.234Z,4.60
2019-03-22T02:31:45.154Z,4.50
2019-03-22T02:34:15.105Z,4.50
2019-03-22T02:36:44.999Z,4.50
2019-03-22T02:39:15.023Z,4.50
2019-03-22T02:41:44.955Z,4.50
2019-03-22T02:44:14.933Z,4.50
2019-03-22T02:46:44.848Z,4.40
2019-03-22T02:49:14.762Z,4.40
2019-03-22T02:51:44.701Z,4.40
2019-03-22T02:54:14.633Z,4.30
2019-03-22T02:56:44.584Z,4.30
2019-03-22T02:59:14.493Z,4.20
2019-03-22T03:01:44.459Z,4.30
2019-03-22T03:04:14.372Z,4.30
2019-03-22T03:06:44.358Z,4.30
2019-03-22T03:09:14.300Z,4.30
2019-03-22T03:11:44.226Z,4.40
2019-03-22T03:14:14.157Z,4.40
2019-03-22T03:16:44.112Z,4.40
2019-03-22T03:19:14.040Z,4.40
2019-03-22T03:21:43.943Z,4.40
2019-03-22T03:24:13.890Z,4.40
2019-03-22T03:26:43.800Z,4.30
2019-03-22T03:29:13.748Z,4.30
2019-03-22T03:31:43.682Z,4.20
2019-03-22T03:34:13.611Z,4.20
2019-03-22T03:36:43.548Z,4.20
2019-03-22T03:39:13.463Z,4.20
2019-03-22T03:41:43.414Z,4.10
2019-03-22T03:44:13.335Z,4.10
2019-03-22T03:46:43.269Z,4.10
2019-03-22T03:49:13.167Z,4.00
2019-03-22T03:51:43.096Z,4.00
2019-03-22T03:54:13.020Z,3.90
2019-03-22T03:56:43.033Z,3.90
2019-03-22T03:59:12.951Z,3.90
2019-03-22T04:01:42.898Z,4.00
2019-03-22T04:04:12.814Z,4.00
2019-03-22T04:06:42.762Z,4.00
2019-03-22T04:09:12.680Z,4.00
2019-03-22T04:11:42.566Z,4.00
2019-03-22T04:14:12.512Z,4.10
2019-03-22T04:16:42.481Z,4.10
2019-03-22T04:19:12.433Z,4.20
2019-03-22T04:21:42.356Z,4.20
2019-03-22T04:24:12.291Z,4.10
2019-03-22T04:26:42.222Z,4.20
2019-03-22T04:29:12.160Z,4.20
2019-03-22T04:31:42.076Z,4.20
2019-03-22T04:34:12.246Z,4.30
2019-03-22T04:36:42.148Z,4.20
2019-03-22T04:39:12.096Z,4.20
2019-03-22T04:41:41.995Z,4.10
2019-03-22T04:44:11.939Z,4.00
2019-03-22T04:46:43.881Z,4.00
2019-03-22T04:49:14.883Z,4.00
2019-03-22T04:51:45.202Z,4.00
2019-03-22T04:54:17.734Z,4.10
2019-03-22T04:56:49.900Z,4.10
2019-03-22T04:59:20.371Z,4.10
2019-03-22T05:01:53.020Z,4.20
2019-03-22T05:04:25.072Z,4.10
2019-03-22T05:06:55.458Z,4.10
2019-03-22T05:09:27.618Z,4.00
2019-03-22T05:11:59.367Z,4.00
2019-03-22T05:14:31.760Z,4.00
2019-03-22T05:17:01.763Z,4.00
2019-03-22T05:19:35.096Z,4.00
2019-03-22T05:22:07.007Z,4.00
2019-03-22T05:24:37.824Z,4.00
2019-03-22T05:27:09.039Z,4.00
2019-03-22T05:29:39.477Z,4.10
2019-03-22T05:32:11.045Z,4.20
2019-03-22T05:34:40.979Z,4.20
2019-03-22T05:37:10.943Z,4.30
2019-03-22T05:39:40.887Z,4.30
2019-03-22T05:42:10.815Z,4.30
2019-03-22T05:44:40.743Z,4.30
2019-03-22T05:47:10.651Z,4.20
2019-03-22T05:49:40.567Z,4.30
2019-03-22T05:52:10.503Z,4.30
2019-03-22T05:54:40.414Z,4.40
2019-03-22T05:57:13.721Z,4.40
2019-03-22T05:59:43.091Z,4.50
2019-03-22T06:02:13.134Z,4.50
2019-03-22T06:04:43.044Z,4.50
2019-03-22T06:07:12.954Z,4.50
2019-03-22T06:09:42.901Z,4.70
2019-03-22T06:12:12.807Z,4.80
2019-03-22T06:14:42.776Z,4.90
2019-03-22T06:17:12.715Z,5.00
2019-03-22T06:19:42.691Z,5.10
2019-03-22T06:22:12.604Z,5.20
2019-03-22T06:24:42.547Z,5.30
2019-03-22T06:27:12.461Z,5.40
2019-03-22T06:29:53.354Z,5.50
2019-03-22T06:32:13.978Z,5.60
2019-03-22T06:34:43.871Z,5.70
2019-03-22T06:37:13.757Z,5.70
2019-03-22T06:39:43.663Z,5.80
2019-03-22T06:42:13.594Z,5.80
2019-03-22T06:44:43.548Z,5.90
2019-03-22T06:47:13.479Z,5.90
2019-03-22T06:49:43.392Z,5.90
2019-03-22T06:52:13.295Z,5.90
2019-03-22T06:54:43.252Z,5.80
2019-03-22T06:57:13.182Z,5.90
2019-03-22T06:59:43.203Z,5.90
2019-03-22T07:02:13.128Z,6.00
2019-03-22T07:04:43.057Z,6.20
2019-03-22T07:07:13.036Z,6.30
2019-03-22T07:09:42.965Z,6.50
2019-03-22T07:12:12.911Z,6.60
2019-03-22T07:14:42.808Z,6.80
2019-03-22T07:17:12.751Z,6.90
2019-03-22T07:19:42.673Z,7.10
2019-03-22T07:22:12.634Z,7.20
2019-03-22T07:24:42.547Z,7.20
2019-03-22T07:27:12.507Z,7.40
2019-03-22T07:29:42.456Z,7.50
2019-03-22T07:32:12.382Z,7.70
2019-03-22T07:34:42.319Z,7.80
2019-03-22T07:37:12.281Z,7.80
2019-03-22T07:39:42.186Z,7.90
2019-03-22T07:42:12.129Z,8.00
2019-03-22T07:44:42.043Z,8.10
2019-03-22T07:47:11.955Z,8.20
2019-03-22T07:49:41.897Z,8.30
2019-03-22T07:52:11.847Z,8.30
2019-03-22T07:54:41.784Z,8.40
2019-03-22T07:57:11.755Z,8.50
2019-03-22T07:59:44.172Z,8.50
2019-03-22T08:02:14.047Z,8.60
2019-03-22T08:04:43.968Z,8.70
2019-03-22T08:07:15.407Z,8.80
2019-03-22T08:09:45.430Z,8.90
2019-03-22T08:12:15.383Z,8.90
2019-03-22T08:14:45.280Z,9.00
2019-03-22T08:17:15.212Z,9.20
2019-03-22T08:19:45.145Z,9.30
2019-03-22T08:22:15.083Z,9.50
2019-03-22T08:24:44.991Z,9.60
2019-03-22T08:27:14.926Z,9.60
2019-03-22T08:29:44.842Z,9.70
2019-03-22T08:32:14.872Z,9.70
2019-03-22T08:34:47.562Z,9.70
2019-03-22T08:37:16.370Z,9.80
2019-03-22T08:39:46.315Z,9.90
2019-03-22T08:42:16.212Z,10.00
2019-03-22T08:44:46.143Z,10.10
2019-03-22T08:47:16.083Z,10.20
2019-03-22T08:49:46.265Z,10.30
2019-03-22T08:52:16.284Z,10.40
2019-03-22T08:54:46.209Z,10.50
2019-03-22T08:57:16.219Z,10.60
2019-03-22T08:59:46.219Z,10.60
2019-03-22T09:02:16.183Z,10.60
2019-03-22T09:04:46.105Z,10.60
2019-03-22T09:07:16.143Z,10.70
2019-03-22T09:09:47.525Z,10.80
2019-03-22T09:12:17.459Z,10.90
2019-03-22T09:14:47.399Z,11.10
2019-03-22T09:17:17.311Z,11.30
2019-03-22T09:19:47.319Z,11.40
2019-03-22T09:22:17.262Z,11.40
2019-03-22T09:24:47.194Z,11.60
2019-03-22T09:27:17.142Z,11.80
2019-03-22T09:29:47.458Z,11.90
2019-03-22T09:32:17.547Z,11.90
2019-03-22T09:34:47.452Z,12.00
2019-03-22T09:37:17.400Z,12.00
2019-03-22T09:39:47.333Z,12.00
2019-03-22T09:42:17.255Z,12.10
2019-03-22T09:44:47.166Z,12.10
2019-03-22T09:47:17.176Z,12.20
2019-03-22T09:49:47.155Z,12.30
2019-03-22T09:52:17.132Z,12.40
2019-03-22T09:54:47.045Z,12.50
2019-03-22T09:57:16.994Z,12.70
2019-03-22T09:59:46.911Z,12.80
2019-03-22T10:02:16.834Z,12.90
2019-03-22T10:04:46.755Z,12.90
2019-03-22T10:07:16.670Z,12.90
2019-03-22T10:09:46.615Z,13.00
2019-03-22T10:12:16.508Z,13.10
2019-03-22T10:14:46.581Z,13.20
2019-03-22T10:17:16.619Z,13.30
2019-03-22T10:19:46.495Z,13.40
2019-03-22T10:22:16.454Z,13.40
2019-03-22T10:24:46.402Z,13.40
2019-03-22T10:27:16.362Z,13.40
2019-03-22T10:29:46.222Z,13.60
2019-03-22T10:32:16.156Z,13.60
2019-03-22T10:34:46.130Z,13.80
2019-03-22T10:37:16.045Z,13.80
2019-03-22T10:39:45.997Z,13.80
2019-03-22T10:42:15.843Z,13.90
2019-03-22T10:44:45.804Z,14.10
2019-03-22T10:47:18.063Z,14.20
2019-03-22T10:49:47.312Z,14.40
2019-03-22T10:52:17.240Z,14.50
2019-03-22T10:54:47.239Z,14.60
2019-03-22T10:57:17.158Z,14.60
2019-03-22T10:59:47.111Z,14.80
2019-03-22T11:02:17.090Z,14.90
2019-03-22T11:04:47.033Z,15.00
2019-03-22T11:07:17.003Z,15.00
2019-03-22T11:09:46.915Z,15.10
2019-03-22T11:12:16.795Z,15.10
2019-03-22T11:14:46.686Z,15.20
2019-03-22T11:17:16.562Z,15.20
2019-03-22T11:19:46.463Z,15.20
2019-03-22T11:22:16.424Z,15.10
2019-03-22T11:24:46.354Z,15.00
2019-03-22T11:27:16.227Z,14.90
2019-03-22T11:29:46.180Z,14.80
2019-03-22T11:32:16.119Z,14.90
2019-03-22T11:34:45.993Z,15.10
2019-03-22T11:37:15.910Z,15.20
2019-03-22T11:39:45.875Z,15.20
2019-03-22T11:42:15.783Z,15.10
2019-03-22T11:44:45.761Z,15.30
2019-03-22T11:47:15.735Z,15.40
2019-03-22T11:49:45.602Z,15.40
2019-03-22T11:52:15.531Z,15.50
2019-03-22T11:54:45.444Z,15.50
2019-03-22T11:57:15.384Z,15.40
2019-03-22T11:59:45.358Z,15.50
2019-03-22T12:02:22.082Z,15.60
2019-03-22T12:04:46.878Z,15.70
2019-03-22T12:07:16.834Z,15.80
2019-03-22T12:09:46.765Z,15.90
2019-03-22T12:12:16.692Z,15.90
2019-03-22T12:14:46.649Z,16.00
2019-03-22T12:17:16.563Z,16.00
2019-03-22T12:19:46.536Z,16.10
2019-03-22T12:22:16.447Z,16.20
2019-03-22T12:24:46.418Z,16.30
2019-03-22T12:27:16.382Z,16.40
2019-03-22T12:29:46.361Z,16.50
2019-03-22T12:32:16.234Z,16.50
2019-03-22T12:34:46.281Z,16.60
2019-03-22T12:37:16.209Z,16.60
2019-03-22T12:39:46.139Z,16.70
2019-03-22T12:42:16.083Z,16.70
2019-03-22T12:44:46.025Z,16.80
2019-03-22T12:47:16.064Z,16.80
2019-03-22T12:49:45.956Z,16.90
2019-03-22T12:52:15.866Z,17.00
2019-03-22T12:54:45.822Z,17.00
2019-03-22T12:57:15.679Z,16.90
2019-03-22T12:59:45.636Z,17.00
2019-03-22T13:02:15.623Z,17.00
2019-03-22T13:04:45.750Z,17.00
2019-03-22T13:07:15.617Z,17.00
2019-03-22T13:09:45.635Z,17.10
2019-03-22T13:12:15.592Z,17.10
2019-03-22T13:14:45.516Z,17.10
2019-03-22T13:17:15.526Z,17.10
2019-03-22T13:19:45.418Z,17.20
2019-03-22T13:22:15.350Z,17.20
2019-03-22T13:24:45.268Z,17.20
2019-03-22T13:27:15.270Z,17.20
2019-03-22T13:29:45.219Z,17.30
2019-03-22T13:32:15.157Z,17.20
2019-03-22T13:34:45.097Z,17.30
2019-03-22T13:37:15.019Z,17.20
2019-03-22T13:39:44.960Z,17.20
2019-03-22T13:42:14.947Z,17.10
2019-03-22T13:44:44.933Z,17.00
2019-03-22T13:47:14.855Z,17.00
2019-03-22T13:49:44.877Z,17.00
2019-03-22T13:52:14.787Z,17.10
2019-03-22T13:54:44.696Z,17.20
2019-03-22T13:57:14.656Z,17.30
2019-03-22T13:59:44.601Z,17.40
2019-03-22T14:02:14.572Z,17.40
2019-03-22T14:04:44.569Z,17.40
2019-03-22T14:07:14.531Z,17.40
2019-03-22T14:09:44.438Z,17.40
2019-03-22T14:12:14.307Z,17.50
2019-03-22T14:14:44.243Z,17.40
2019-03-22T14:17:14.171Z,17.40
2019-03-22T14:19:44.135Z,17.40
2019-03-22T14:22:14.062Z,17.40
2019-03-22T14:24:43.984Z,17.40
2019-03-22T14:27:13.920Z,17.50
2019-03-22T14:29:43.876Z,17.50
2019-03-22T14:32:13.787Z,17.50
2019-03-22T14:34:43.707Z,17.60
2019-03-22T14:37:13.647Z,17.70
2019-03-22T14:39:43.493Z,17.80
2019-03-22T14:42:13.419Z,17.90
2019-03-22T14:44:43.351Z,18.00
2019-03-22T14:47:13.297Z,18.10
2019-03-22T14:49:43.210Z,18.20
2019-03-22T14:52:13.158Z,18.20
2019-03-22T14:54:43.079Z,18.20
2019-03-22T14:57:13.016Z,18.30
2019-03-22T14:59:42.962Z,18.40
2019-03-22T15:02:12.988Z,18.40
2019-03-22T15:04:42.946Z,18.40
2019-03-22T15:07:19.576Z,18.40
2019-03-22T15:09:46.226Z,18.40
2019-03-22T15:12:16.024Z,18.30
2019-03-22T15:15:03.801Z,18.40
2019-03-22T15:18:01.545Z,18.40
2019-03-22T15:20:49.096Z,18.40
2019-03-22T15:24:02.938Z,18.50
2019-03-22T15:26:55.115Z,18.50
2019-03-22T15:29:51.105Z,18.40
2019-03-22T15:32:40.031Z,18.30
2019-03-22T15:35:38.067Z,18.20
2019-03-22T15:38:27.055Z,18.20
2019-03-22T15:40:57.042Z,18.00
2019-03-22T15:43:27.027Z,17.90
2019-03-22T15:45:57.684Z,17.80
2019-03-22T15:48:27.634Z,17.70
2019-03-22T15:50:58.055Z,17.60
2019-03-22T15:53:30.108Z,17.50
2019-03-22T15:56:00.040Z,17.30
2019-03-22T15:58:30.067Z,17.20
2019-03-22T16:01:00.020Z,17.10
2019-03-22T16:03:32.377Z,16.90
2019-03-22T16:06:02.506Z,16.70
2019-03-22T16:08:32.973Z,16.50
2019-03-22T16:11:02.908Z,16.40
2019-03-22T16:13:32.819Z,16.30
2019-03-22T16:16:02.762Z,16.20
2019-03-22T16:18:32.690Z,16.10
2019-03-22T16:21:02.664Z,16.00
2019-03-22T16:23:32.599Z,15.90
2019-03-22T16:26:02.500Z,15.80
2019-03-22T16:28:32.463Z,15.70
2019-03-22T16:31:02.410Z,15.60
2019-03-22T16:33:34.023Z,15.50
2019-03-22T16:36:04.116Z,15.40
2019-03-22T16:38:34.178Z,15.30
2019-03-22T16:41:04.467Z,15.20
2019-03-22T16:43:34.378Z,15.20
2019-03-22T16:46:04.568Z,15.00
2019-03-22T16:48:34.476Z,14.90
2019-03-22T16:51:04.571Z,14.80
2019-03-22T16:53:34.511Z,14.80
2019-03-22T16:56:04.566Z,14.70
2019-03-22T16:58:34.425Z,14.60
2019-03-22T17:01:05.260Z,14.50
2019-03-22T17:03:35.257Z,14.40
2019-03-22T17:06:05.355Z,14.30
2019-03-22T17:08:35.263Z,14.30
2019-03-22T17:11:05.178Z,14.20
2019-03-22T17:13:35.111Z,14.10
2019-03-22T17:16:04.970Z,14.00
2019-03-22T17:18:34.915Z,13.90
2019-03-22T17:21:04.846Z,13.90
2019-03-22T17:23:34.697Z,13.80
2019-03-22T17:26:04.628Z,13.70
2019-03-22T17:28:35.014Z,13.60
2019-03-22T17:31:04.928Z,13.50
2019-03-22T17:33:34.855Z,13.40
2019-03-22T17:36:04.739Z,13.30
2019-03-22T17:38:34.607Z,13.20
2019-03-22T17:41:04.567Z,13.10
2019-03-22T17:43:34.485Z,13.00
2019-03-22T17:46:04.443Z,13.00
2019-03-22T17:48:34.285Z,12.90
2019-03-22T17:51:04.239Z,12.80
2019-03-22T17:53:34.171Z,12.70
2019-03-22T17:56:04.092Z,12.60
2019-03-22T17:58:34.032Z,12.50
2019-03-22T18:01:03.966Z,12.40
2019-03-22T18:03:33.916Z,12.30
2019-03-22T18:06:03.876Z,12.20
2019-03-22T18:08:33.830Z,12.10
2019-03-22T18:11:03.754Z,12.10
2019-03-22T18:13:33.697Z,12.00
2019-03-22T18:16:03.621Z,11.90
2019-03-22T18:18:33.550Z,11.80
2019-03-22T18:21:03.427Z,11.80
2019-03-22T18:23:36.018Z,11.70
2019-03-22T18:26:04.931Z,11.70
2019-03-22T18:28:34.850Z,11.60
2019-03-22T18:31:04.819Z,11.60
2019-03-22T18:33:34.763Z,11.50
2019-03-22T18:36:04.740Z,11.50
2019-03-22T18:38:34.650Z,11.40
2019-03-22T18:41:04.606Z,11.40
2019-03-22T18:43:34.527Z,11.30
2019-03-22T18:46:04.426Z,11.30
2019-03-22T18:48:34.325Z,11.20
2019-03-22T18:51:04.232Z,11.20
2019-03-22T18:53:34.495Z,11.20
2019-03-22T18:56:04.943Z,11.10
2019-03-22T18:58:34.928Z,11.10
2019-03-22T19:01:04.851Z,11.10
2019-03-22T19:03:34.906Z,11.00
2019-03-22T19:06:04.835Z,11.00
2019-03-22T19:08:34.752Z,11.00
2019-03-22T19:11:04.829Z,10.90
2019-03-22T19:13:34.742Z,10.90
2019-03-22T19:16:04.698Z,10.90
2019-03-22T19:18:34.630Z,10.80
2019-03-22T19:21:04.566Z,10.80
2019-03-22T19:23:34.496Z,10.80
2019-03-22T19:26:04.482Z,10.70
2019-03-22T19:28:34.394Z,10.70
2019-03-22T19:31:04.327Z,10.60
2019-03-22T19:33:34.270Z,10.60
2019-03-22T19:36:04.207Z,10.50
2019-03-22T19:38:34.156Z,10.50
2019-03-22T19:41:05.363Z,10.50
2019-03-22T19:43:35.326Z,10.40
2019-03-22T19:46:05.719Z,10.40
2019-03-22T19:48:35.695Z,10.30
2019-03-22T19:51:05.615Z,10.30
2019-03-22T19:53:35.574Z,10.30
2019-03-22T19:56:05.819Z,10.30
2019-03-22T19:58:35.750Z,10.20
2019-03-22T20:01:05.802Z,10.20
2019-03-22T20:03:35.786Z,10.10
2019-03-22T20:06:05.736Z,10.10
2019-03-22T20:08:35.687Z,10.10
2019-03-22T20:11:05.911Z,10.00
2019-03-22T20:13:35.897Z,9.90
2019-03-22T20:16:05.764Z,9.90
2019-03-22T20:18:35.693Z,9.90
2019-03-22T20:21:05.598Z,9.80
2019-03-22T20:23:35.548Z,9.80
2019-03-22T20:26:05.488Z,9.70
2019-03-22T20:28:35.425Z,9.70
2019-03-22T20:31:05.398Z,9.60
2019-03-22T20:33:35.261Z,9.60
2019-03-22T20:36:05.211Z,9.60
2019-03-22T20:38:35.179Z,9.50
2019-03-22T20:41:05.089Z,9.50
2019-03-22T20:43:35.002Z,9.40
2019-03-22T20:46:04.932Z,9.40
2019-03-22T20:48:34.846Z,9.40
2019-03-22T20:51:04.787Z,9.40
2019-03-22T20:53:34.781Z,9.30
2019-03-22T20:56:04.814Z,9.30
2019-03-22T20:58:34.729Z,9.20
2019-03-22T21:01:04.751Z,9.20
2019-03-22T21:03:34.658Z,9.10
2019-03-22T21:06:04.726Z,9.10
2019-03-22T21:08:34.651Z,9.10
2019-03-22T21:11:04.559Z,9.10
2019-03-22T21:13:34.502Z,9.00
2019-03-22T21:16:04.429Z,9.00
2019-03-22T21:18:34.385Z,9.00
2019-03-22T21:21:04.294Z,8.90
2019-03-22T21:23:36.555Z,8.80
2019-03-22T21:26:05.899Z,8.80
2019-03-22T21:28:35.819Z,8.80
2019-03-22T21:31:05.802Z,8.80
2019-03-22T21:33:35.739Z,8.80
2019-03-22T21:36:05.699Z,8.70
2019-03-22T21:38:35.623Z,8.60
2019-03-22T21:41:05.559Z,8.60
2019-03-22T21:43:35.493Z,8.60
2019-03-22T21:46:05.402Z,8.60
2019-03-22T21:48:35.346Z,8.50
2019-03-22T21:51:05.287Z,8.50
2019-03-22T21:53:35.258Z,8.50
2019-03-22T21:56:05.176Z,8.40
2019-03-22T21:58:35.155Z,8.40
2019-03-22T22:01:05.113Z,8.40
2019-03-22T22:03:35.405Z,8.40
2019-03-22T22:06:05.851Z,8.40
2019-03-22T22:08:35.800Z,8.40
2019-03-22T22:11:05.753Z,8.30
2019-03-22T22:13:35.655Z,8.30
2019-03-22T22:16:05.611Z,8.20
2019-03-22T22:18:35.541Z,8.20
2019-03-22T22:21:05.486Z,8.20
2019-03-22T22:23:35.407Z,8.20
2019-03-22T22:26:05.326Z,8.10
2019-03-22T22:28:35.284Z,8.10
2019-03-22T22:31:05.160Z,8.10
2019-03-22T22:33:35.510Z,8.00
2019-03-22T22:36:05.430Z,8.00
2019-03-22T22:38:35.719Z,7.90
2019-03-22T22:41:05.564Z,7.90
2019-03-22T22:43:35.502Z,7.90
2019-03-22T22:46:05.426Z,7.90
2019-03-22T22:48:35.359Z,7.80
2019-03-22T22:51:05.398Z,7.80
2019-03-22T22:53:35.326Z,7.70
2019-03-22T22:56:05.318Z,7.70
2019-03-22T22:58:35.256Z,7.60
2019-03-22T23:01:05.315Z,7.60
2019-03-22T23:03:35.261Z,7.60
2019-03-22T23:06:09.257Z,7.60
2019-03-22T23:08:36.831Z,7.50
2019-03-22T23:11:06.896Z,7.50
2019-03-22T23:13:36.807Z,7.50
2019-03-22T23:16:06.800Z,7.40
2019-03-22T23:18:36.679Z,7.40
2019-03-22T23:21:08.950Z,7.40
2019-03-22T23:23:38.864Z,7.40
2019-03-22T23:26:08.779Z,7.30
2019-03-22T23:28:38.707Z,7.30
2019-03-22T23:31:08.619Z,7.30
2019-03-22T23:33:38.575Z,7.30
2019-03-22T23:36:08.512Z,7.20
2019-03-22T23:38:38.469Z,7.20
2019-03-22T23:41:08.372Z,7.20
2019-03-22T23:43:38.308Z,7.10
2019-03-22T23:46:08.242Z,7.10
2019-03-22T23:48:38.179Z,7.10
2019-03-22T23:51:08.099Z,7.10
2019-03-22T23:53:38.015Z,7.00
2019-03-22T23:56:07.983Z,7.00
2019-03-22T23:58:37.887Z,7.00
